sensor_id;sensor_type;location;lat;lon;timestamp;P1;durP1;ratioP1;P2;durP2;ratioP2
40953;SDS011;26686;50.130;8.710;2023-08-06T00:02:30;3.88;;;2.30;;
40953;SDS011;26686;50.130;8.710;2023-08-06T00:07:32;2.88;;;2.63;;
40953;SDS011;26686;50.130;8.710;2023-08-06T00:12:33;3.97;;;2.85;;
40953;SDS011;26686;50.130;8.710;2023-08-06T00:17:35;3.70;;;2.28;;
40953;SDS011;26686;50.130;8.710;2023-08-06T00:22:37;2.45;;;2.25;;
40953;SDS011;26686;50.130;8.710;2023-08-06T00:27:39;4.82;;;3.08;;
40953;SDS011;26686;50.130;8.710;2023-08-06T00:32:41;5.47;;;2.88;;
40953;SDS011;26686;50.130;8.710;2023-08-06T00:37:43;2.85;;;2.55;;
40953;SDS011;26686;50.130;8.710;2023-08-06T00:42:44;2.90;;;2.45;;
40953;SDS011;26686;50.130;8.710;2023-08-06T00:47:46;2.80;;;2.10;;
40953;SDS011;26686;50.130;8.710;2023-08-06T00:52:48;2.70;;;2.50;;
40953;SDS011;26686;50.130;8.710;2023-08-06T00:57:50;3.13;;;2.85;;
40953;SDS011;26686;50.130;8.710;2023-08-06T01:02:53;2.67;;;2.42;;
40953;SDS011;26686;50.130;8.710;2023-08-06T01:08:03;3.17;;;2.47;;
40953;SDS011;26686;50.130;8.710;2023-08-06T01:18:48;3.53;;;2.80;;
40953;SDS011;26686;50.130;8.710;2023-08-06T01:23:53;2.47;;;2.10;;
40953;SDS011;26686;50.130;8.710;2023-08-06T01:34:20;3.42;;;2.20;;
40953;SDS011;26686;50.130;8.710;2023-08-06T01:39:23;2.95;;;2.15;;
40953;SDS011;26686;50.130;8.710;2023-08-06T01:44:25;2.28;;;2.05;;
40953;SDS011;26686;50.130;8.710;2023-08-06T01:49:27;3.60;;;2.25;;
40953;SDS011;26686;50.130;8.710;2023-08-06T01:54:29;3.40;;;1.85;;
40953;SDS011;26686;50.130;8.710;2023-08-06T01:59:30;6.10;;;2.40;;
40953;SDS011;26686;50.130;8.710;2023-08-06T02:04:32;2.55;;;2.35;;
40953;SDS011;26686;50.130;8.710;2023-08-06T02:09:33;2.63;;;2.08;;
40953;SDS011;26686;50.130;8.710;2023-08-06T02:14:36;3.38;;;2.42;;
40953;SDS011;26686;50.130;8.710;2023-08-06T02:19:38;2.00;;;1.80;;
40953;SDS011;26686;50.130;8.710;2023-08-06T02:24:40;2.75;;;2.25;;
40953;SDS011;26686;50.130;8.710;2023-08-06T02:29:41;2.75;;;1.92;;
40953;SDS011;26686;50.130;8.710;2023-08-06T02:34:43;3.13;;;2.33;;
40953;SDS011;26686;50.130;8.710;2023-08-06T02:39:44;2.88;;;1.95;;
40953;SDS011;26686;50.130;8.710;2023-08-06T02:44:46;4.45;;;2.25;;
40953;SDS011;26686;50.130;8.710;2023-08-06T02:49:48;3.58;;;2.42;;
40953;SDS011;26686;50.130;8.710;2023-08-06T02:54:49;3.25;;;2.25;;
40953;SDS011;26686;50.130;8.710;2023-08-06T02:59:51;4.00;;;2.95;;
40953;SDS011;26686;50.130;8.710;2023-08-06T03:04:53;2.53;;;1.90;;
40953;SDS011;26686;50.130;8.710;2023-08-06T03:09:54;2.58;;;1.77;;
40953;SDS011;26686;50.130;8.710;2023-08-06T03:14:56;2.58;;;1.77;;
40953;SDS011;26686;50.130;8.710;2023-08-06T03:19:57;4.57;;;2.05;;
40953;SDS011;26686;50.130;8.710;2023-08-06T03:24:59;1.75;;;1.65;;
40953;SDS011;26686;50.130;8.710;2023-08-06T03:30:01;2.55;;;1.85;;
40953;SDS011;26686;50.130;8.710;2023-08-06T03:35:02;3.47;;;1.83;;
40953;SDS011;26686;50.130;8.710;2023-08-06T03:40:04;2.22;;;2.03;;
40953;SDS011;26686;50.130;8.710;2023-08-06T03:45:06;1.73;;;1.55;;
40953;SDS011;26686;50.130;8.710;2023-08-06T03:50:09;2.65;;;2.08;;
40953;SDS011;26686;50.130;8.710;2023-08-06T03:55:11;2.88;;;1.73;;
40953;SDS011;26686;50.130;8.710;2023-08-06T04:00:13;2.40;;;1.75;;
40953;SDS011;26686;50.130;8.710;2023-08-06T04:05:15;2.88;;;1.83;;
40953;SDS011;26686;50.130;8.710;2023-08-06T04:10:17;3.42;;;1.70;;
40953;SDS011;26686;50.130;8.710;2023-08-06T04:15:19;2.75;;;1.50;;
40953;SDS011;26686;50.130;8.710;2023-08-06T04:20:20;2.95;;;1.40;;
40953;SDS011;26686;50.130;8.710;2023-08-06T04:25:22;1.88;;;1.33;;
40953;SDS011;26686;50.130;8.710;2023-08-06T04:30:24;2.88;;;1.50;;
40953;SDS011;26686;50.130;8.710;2023-08-06T04:35:26;2.42;;;1.65;;
40953;SDS011;26686;50.130;8.710;2023-08-06T04:40:28;2.92;;;1.30;;
40953;SDS011;26686;50.130;8.710;2023-08-06T04:45:29;2.40;;;1.75;;
40953;SDS011;26686;50.130;8.710;2023-08-06T04:50:30;6.05;;;2.30;;
40953;SDS011;26686;50.130;8.710;2023-08-06T04:55:32;2.75;;;1.27;;
40953;SDS011;26686;50.130;8.710;2023-08-06T05:00:34;3.20;;;1.50;;
40953;SDS011;26686;50.130;8.710;2023-08-06T05:05:35;1.45;;;0.90;;
40953;SDS011;26686;50.130;8.710;2023-08-06T05:10:37;2.35;;;1.00;;
40953;SDS011;26686;50.130;8.710;2023-08-06T05:15:38;2.55;;;1.08;;
40953;SDS011;26686;50.130;8.710;2023-08-06T05:20:44;1.75;;;0.95;;
40953;SDS011;26686;50.130;8.710;2023-08-06T05:25:46;1.45;;;0.95;;
40953;SDS011;26686;50.130;8.710;2023-08-06T05:30:47;0.95;;;0.80;;
40953;SDS011;26686;50.130;8.710;2023-08-06T05:35:49;1.75;;;1.02;;
40953;SDS011;26686;50.130;8.710;2023-08-06T05:40:51;1.70;;;1.20;;
40953;SDS011;26686;50.130;8.710;2023-08-06T05:45:52;1.65;;;1.13;;
40953;SDS011;26686;50.130;8.710;2023-08-06T05:50:54;0.98;;;0.50;;
40953;SDS011;26686;50.130;8.710;2023-08-06T05:55:55;0.85;;;0.57;;
40953;SDS011;26686;50.130;8.710;2023-08-06T06:00:57;1.05;;;0.70;;
40953;SDS011;26686;50.130;8.710;2023-08-06T06:05:59;2.92;;;0.75;;
40953;SDS011;26686;50.130;8.710;2023-08-06T06:11:02;1.25;;;0.70;;
40953;SDS011;26686;50.130;8.710;2023-08-06T06:16:03;2.22;;;0.77;;
40953;SDS011;26686;50.130;8.710;2023-08-06T06:21:06;2.45;;;0.70;;
40953;SDS011;26686;50.130;8.710;2023-08-06T06:26:07;0.80;;;0.40;;
40953;SDS011;26686;50.130;8.710;2023-08-06T06:31:09;1.67;;;0.50;;
40953;SDS011;26686;50.130;8.710;2023-08-06T06:36:11;2.85;;;0.35;;
40953;SDS011;26686;50.130;8.710;2023-08-06T06:41:13;0.95;;;0.35;;
40953;SDS011;26686;50.130;8.710;2023-08-06T06:46:14;0.82;;;0.28;;
40953;SDS011;26686;50.130;8.710;2023-08-06T06:51:16;1.08;;;0.20;;
40953;SDS011;26686;50.130;8.710;2023-08-06T06:56:17;1.55;;;0.40;;
40953;SDS011;26686;50.130;8.710;2023-08-06T07:01:19;0.75;;;0.50;;
40953;SDS011;26686;50.130;8.710;2023-08-06T07:06:21;1.40;;;0.50;;
40953;SDS011;26686;50.130;8.710;2023-08-06T07:11:22;0.63;;;0.40;;
40953;SDS011;26686;50.130;8.710;2023-08-06T07:16:24;0.63;;;0.30;;
40953;SDS011;26686;50.130;8.710;2023-08-06T07:21:27;1.85;;;0.38;;
40953;SDS011;26686;50.130;8.710;2023-08-06T07:26:28;1.17;;;0.30;;
40953;SDS011;26686;50.130;8.710;2023-08-06T07:31:30;0.30;;;0.30;;
40953;SDS011;26686;50.130;8.710;2023-08-06T07:36:32;1.38;;;0.22;;
40953;SDS011;26686;50.130;8.710;2023-08-06T07:41:34;1.20;;;0.30;;
40953;SDS011;26686;50.130;8.710;2023-08-06T07:46:36;0.52;;;0.20;;
40953;SDS011;26686;50.130;8.710;2023-08-06T07:51:38;0.80;;;0.28;;
40953;SDS011;26686;50.130;8.710;2023-08-06T07:56:39;1.17;;;0.10;;
40953;SDS011;26686;50.130;8.710;2023-08-06T08:01:42;0.93;;;0.22;;
40953;SDS011;26686;50.130;8.710;2023-08-06T08:06:44;0.80;;;0.10;;
40953;SDS011;26686;50.130;8.710;2023-08-06T08:11:45;0.38;;;0.10;;
40953;SDS011;26686;50.130;8.710;2023-08-06T08:16:48;0.70;;;0.10;;
40953;SDS011;26686;50.130;8.710;2023-08-06T08:21:49;0.30;;;0.20;;
40953;SDS011;26686;50.130;8.710;2023-08-06T08:26:51;0.93;;;0.20;;
40953;SDS011;26686;50.130;8.710;2023-08-06T08:31:53;0.30;;;0.10;;
40953;SDS011;26686;50.130;8.710;2023-08-06T08:36:55;0.40;;;0.20;;
40953;SDS011;26686;50.130;8.710;2023-08-06T08:41:57;4.20;;;0.43;;
40953;SDS011;26686;50.130;8.710;2023-08-06T08:46:59;0.80;;;0.30;;
40953;SDS011;26686;50.130;8.710;2023-08-06T08:52:01;1.42;;;0.30;;
40953;SDS011;26686;50.130;8.710;2023-08-06T08:57:07;1.20;;;0.20;;
40953;SDS011;26686;50.130;8.710;2023-08-06T09:02:09;0.70;;;0.38;;
40953;SDS011;26686;50.130;8.710;2023-08-06T09:07:16;1.33;;;0.32;;
40953;SDS011;26686;50.130;8.710;2023-08-06T09:12:20;0.68;;;0.28;;
40953;SDS011;26686;50.130;8.710;2023-08-06T09:17:22;0.85;;;0.20;;
40953;SDS011;26686;50.130;8.710;2023-08-06T09:22:24;1.73;;;0.50;;
40953;SDS011;26686;50.130;8.710;2023-08-06T09:27:27;0.45;;;0.20;;
40953;SDS011;26686;50.130;8.710;2023-08-06T09:32:47;1.02;;;0.28;;
40953;SDS011;26686;50.130;8.710;2023-08-06T09:37:50;0.38;;;0.10;;
40953;SDS011;26686;50.130;8.710;2023-08-06T09:42:51;0.40;;;0.20;;
40953;SDS011;26686;50.130;8.710;2023-08-06T09:47:56;0.47;;;0.17;;
40953;SDS011;26686;50.130;8.710;2023-08-06T09:52:59;0.63;;;0.17;;
40953;SDS011;26686;50.130;8.710;2023-08-06T09:58:01;1.23;;;0.20;;
40953;SDS011;26686;50.130;8.710;2023-08-06T10:03:04;1.15;;;0.10;;
40953;SDS011;26686;50.130;8.710;2023-08-06T10:08:07;0.93;;;0.20;;
40953;SDS011;26686;50.130;8.710;2023-08-06T10:13:09;0.43;;;0.10;;
40953;SDS011;26686;50.130;8.710;2023-08-06T10:18:11;1.98;;;0.68;;
40953;SDS011;26686;50.130;8.710;2023-08-06T10:28:17;1.25;;;0.30;;
40953;SDS011;26686;50.130;8.710;2023-08-06T10:33:20;0.63;;;0.20;;
40953;SDS011;26686;50.130;8.710;2023-08-06T10:38:24;0.30;;;0.10;;
40953;SDS011;26686;50.130;8.710;2023-08-06T10:43:29;0.82;;;0.38;;
40953;SDS011;26686;50.130;8.710;2023-08-06T10:48:33;2.00;;;0.95;;
40953;SDS011;26686;50.130;8.710;2023-08-06T10:53:36;0.57;;;0.25;;
40953;SDS011;26686;50.130;8.710;2023-08-06T10:58:38;0.85;;;0.20;;
40953;SDS011;26686;50.130;8.710;2023-08-06T11:03:40;0.50;;;0.20;;
40953;SDS011;26686;50.130;8.710;2023-08-06T11:08:47;0.73;;;0.10;;
40953;SDS011;26686;50.130;8.710;2023-08-06T11:13:51;0.17;;;0.10;;
40953;SDS011;26686;50.130;8.710;2023-08-06T11:18:54;0.10;;;0.00;;
40953;SDS011;26686;50.130;8.710;2023-08-06T11:23:58;0.55;;;0.10;;
40953;SDS011;26686;50.130;8.710;2023-08-06T11:29:00;0.30;;;0.10;;
40953;SDS011;26686;50.130;8.710;2023-08-06T11:34:01;0.95;;;0.20;;
40953;SDS011;26686;50.130;8.710;2023-08-06T11:39:03;0.10;;;0.10;;
40953;SDS011;26686;50.130;8.710;2023-08-06T11:44:07;0.30;;;0.10;;
40953;SDS011;26686;50.130;8.710;2023-08-06T11:49:13;0.80;;;0.10;;
40953;SDS011;26686;50.130;8.710;2023-08-06T11:54:15;0.30;;;0.10;;
40953;SDS011;26686;50.130;8.710;2023-08-06T11:59:16;0.30;;;0.10;;
40953;SDS011;26686;50.130;8.710;2023-08-06T12:04:20;0.80;;;0.20;;
40953;SDS011;26686;50.130;8.710;2023-08-06T12:09:22;1.50;;;0.10;;
40953;SDS011;26686;50.130;8.710;2023-08-06T12:14:24;1.40;;;0.00;;
40953;SDS011;26686;50.130;8.710;2023-08-06T12:19:25;0.50;;;0.10;;
40953;SDS011;26686;50.130;8.710;2023-08-06T12:24:27;1.02;;;0.10;;
40953;SDS011;26686;50.130;8.710;2023-08-06T12:29:32;0.20;;;0.10;;
40953;SDS011;26686;50.130;8.710;2023-08-06T12:34:34;0.52;;;0.30;;
40953;SDS011;26686;50.130;8.710;2023-08-06T12:39:51;0.03;;;0.00;;
40953;SDS011;26686;50.130;8.710;2023-08-06T12:44:52;0.40;;;0.20;;
40953;SDS011;26686;50.130;8.710;2023-08-06T12:49:54;0.30;;;0.10;;
40953;SDS011;26686;50.130;8.710;2023-08-06T12:54:55;0.10;;;0.00;;
40953;SDS011;26686;50.130;8.710;2023-08-06T12:59:57;2.08;;;0.10;;
40953;SDS011;26686;50.130;8.710;2023-08-06T13:04:58;0.20;;;0.10;;
40953;SDS011;26686;50.130;8.710;2023-08-06T13:10:00;1.20;;;0.20;;
40953;SDS011;26686;50.130;8.710;2023-08-06T13:15:01;0.60;;;0.22;;
40953;SDS011;26686;50.130;8.710;2023-08-06T13:20:03;0.40;;;0.20;;
40953;SDS011;26686;50.130;8.710;2023-08-06T13:25:05;1.17;;;0.20;;
40953;SDS011;26686;50.130;8.710;2023-08-06T13:30:08;1.40;;;0.63;;
40953;SDS011;26686;50.130;8.710;2023-08-06T13:35:10;1.45;;;0.40;;
40953;SDS011;26686;50.130;8.710;2023-08-06T13:40:12;0.75;;;0.50;;
40953;SDS011;26686;50.130;8.710;2023-08-06T13:45:14;0.75;;;0.10;;
40953;SDS011;26686;50.130;8.710;2023-08-06T13:50:16;0.80;;;0.25;;
40953;SDS011;26686;50.130;8.710;2023-08-06T13:55:17;0.30;;;0.13;;
40953;SDS011;26686;50.130;8.710;2023-08-06T14:00:19;1.05;;;0.30;;
40953;SDS011;26686;50.130;8.710;2023-08-06T14:05:21;0.47;;;0.10;;
40953;SDS011;26686;50.130;8.710;2023-08-06T14:10:22;0.20;;;0.10;;
40953;SDS011;26686;50.130;8.710;2023-08-06T14:15:24;0.40;;;0.10;;
40953;SDS011;26686;50.130;8.710;2023-08-06T14:20:26;0.50;;;0.10;;
40953;SDS011;26686;50.130;8.710;2023-08-06T14:25:27;0.32;;;0.10;;
40953;SDS011;26686;50.130;8.710;2023-08-06T14:30:29;0.43;;;0.10;;
40953;SDS011;26686;50.130;8.710;2023-08-06T14:35:30;0.50;;;0.17;;
40953;SDS011;26686;50.130;8.710;2023-08-06T14:40:32;1.60;;;0.30;;
40953;SDS011;26686;50.130;8.710;2023-08-06T14:45:39;0.68;;;0.40;;
40953;SDS011;26686;50.130;8.710;2023-08-06T14:50:40;1.48;;;0.28;;
40953;SDS011;26686;50.130;8.710;2023-08-06T14:55:42;1.08;;;0.20;;
40953;SDS011;26686;50.130;8.710;2023-08-06T15:00:44;0.70;;;0.30;;
40953;SDS011;26686;50.130;8.710;2023-08-06T15:05:48;0.85;;;0.32;;
40953;SDS011;26686;50.130;8.710;2023-08-06T15:10:51;0.65;;;0.35;;
40953;SDS011;26686;50.130;8.710;2023-08-06T15:15:54;0.88;;;0.32;;
40953;SDS011;26686;50.130;8.710;2023-08-06T15:20:55;1.60;;;0.40;;
40953;SDS011;26686;50.130;8.710;2023-08-06T15:25:58;0.63;;;0.30;;
40953;SDS011;26686;50.130;8.710;2023-08-06T15:31:00;0.38;;;0.10;;
40953;SDS011;26686;50.130;8.710;2023-08-06T15:36:05;0.20;;;0.05;;
40953;SDS011;26686;50.130;8.710;2023-08-06T15:41:07;1.95;;;0.20;;
40953;SDS011;26686;50.130;8.710;2023-08-06T15:46:08;1.13;;;0.10;;
40953;SDS011;26686;50.130;8.710;2023-08-06T15:51:10;0.00;;;0.00;;
40953;SDS011;26686;50.130;8.710;2023-08-06T15:56:11;0.22;;;0.10;;
40953;SDS011;26686;50.130;8.710;2023-08-06T16:01:13;0.30;;;0.10;;
40953;SDS011;26686;50.130;8.710;2023-08-06T16:06:15;1.35;;;0.10;;
40953;SDS011;26686;50.130;8.710;2023-08-06T16:11:17;0.63;;;0.20;;
40953;SDS011;26686;50.130;8.710;2023-08-06T16:16:18;1.02;;;0.22;;
40953;SDS011;26686;50.130;8.710;2023-08-06T16:21:20;1.65;;;0.20;;
40953;SDS011;26686;50.130;8.710;2023-08-06T16:26:22;0.93;;;0.20;;
40953;SDS011;26686;50.130;8.710;2023-08-06T16:31:24;2.00;;;0.22;;
40953;SDS011;26686;50.130;8.710;2023-08-06T16:36:25;1.58;;;0.20;;
40953;SDS011;26686;50.130;8.710;2023-08-06T16:41:27;1.90;;;0.20;;
40953;SDS011;26686;50.130;8.710;2023-08-06T16:46:29;1.85;;;0.95;;
40953;SDS011;26686;50.130;8.710;2023-08-06T16:51:30;3.00;;;0.40;;
40953;SDS011;26686;50.130;8.710;2023-08-06T16:56:33;1.00;;;0.20;;
40953;SDS011;26686;50.130;8.710;2023-08-06T17:01:34;1.58;;;0.10;;
40953;SDS011;26686;50.130;8.710;2023-08-06T17:06:37;1.08;;;0.30;;
40953;SDS011;26686;50.130;8.710;2023-08-06T17:11:39;2.05;;;0.30;;
40953;SDS011;26686;50.130;8.710;2023-08-06T17:16:40;1.30;;;0.20;;
40953;SDS011;26686;50.130;8.710;2023-08-06T17:21:42;0.50;;;0.22;;
40953;SDS011;26686;50.130;8.710;2023-08-06T17:26:43;1.38;;;0.32;;
40953;SDS011;26686;50.130;8.710;2023-08-06T17:31:45;1.58;;;0.30;;
40953;SDS011;26686;50.130;8.710;2023-08-06T17:36:46;1.13;;;0.30;;
40953;SDS011;26686;50.130;8.710;2023-08-06T17:41:48;1.25;;;0.30;;
40953;SDS011;26686;50.130;8.710;2023-08-06T17:46:49;1.23;;;0.20;;
40953;SDS011;26686;50.130;8.710;2023-08-06T17:51:51;0.75;;;0.30;;
40953;SDS011;26686;50.130;8.710;2023-08-06T17:56:53;1.17;;;0.30;;
40953;SDS011;26686;50.130;8.710;2023-08-06T18:01:58;0.30;;;0.20;;
40953;SDS011;26686;50.130;8.710;2023-08-06T18:07:00;4.35;;;0.40;;
40953;SDS011;26686;50.130;8.710;2023-08-06T18:12:02;0.25;;;0.10;;
40953;SDS011;26686;50.130;8.710;2023-08-06T18:17:04;1.73;;;0.22;;
40953;SDS011;26686;50.130;8.710;2023-08-06T18:22:05;1.25;;;0.30;;
40953;SDS011;26686;50.130;8.710;2023-08-06T18:27:07;0.88;;;0.38;;
40953;SDS011;26686;50.130;8.710;2023-08-06T18:32:08;0.50;;;0.20;;
40953;SDS011;26686;50.130;8.710;2023-08-06T18:37:10;0.90;;;0.38;;
40953;SDS011;26686;50.130;8.710;2023-08-06T18:42:11;1.63;;;0.20;;
40953;SDS011;26686;50.130;8.710;2023-08-06T18:47:13;0.68;;;0.20;;
40953;SDS011;26686;50.130;8.710;2023-08-06T18:52:14;0.65;;;0.20;;
40953;SDS011;26686;50.130;8.710;2023-08-06T18:57:16;1.48;;;0.15;;
40953;SDS011;26686;50.130;8.710;2023-08-06T19:02:18;0.77;;;0.10;;
40953;SDS011;26686;50.130;8.710;2023-08-06T19:07:19;0.93;;;0.25;;
40953;SDS011;26686;50.130;8.710;2023-08-06T19:12:21;0.40;;;0.20;;
40953;SDS011;26686;50.130;8.710;2023-08-06T19:17:22;0.40;;;0.20;;
40953;SDS011;26686;50.130;8.710;2023-08-06T19:22:24;0.43;;;0.10;;
40953;SDS011;26686;50.130;8.710;2023-08-06T19:27:26;1.00;;;0.30;;
40953;SDS011;26686;50.130;8.710;2023-08-06T19:32:28;0.88;;;0.17;;
40953;SDS011;26686;50.130;8.710;2023-08-06T19:37:29;0.50;;;0.20;;
40953;SDS011;26686;50.130;8.710;2023-08-06T19:42:31;1.27;;;0.17;;
40953;SDS011;26686;50.130;8.710;2023-08-06T19:47:32;0.60;;;0.30;;
40953;SDS011;26686;50.130;8.710;2023-08-06T19:52:34;0.50;;;0.10;;
40953;SDS011;26686;50.130;8.710;2023-08-06T19:57:36;1.30;;;0.13;;
40953;SDS011;26686;50.130;8.710;2023-08-06T20:02:37;0.68;;;0.20;;
40953;SDS011;26686;50.130;8.710;2023-08-06T20:07:39;1.10;;;0.10;;
40953;SDS011;26686;50.130;8.710;2023-08-06T20:12:40;0.50;;;0.17;;
40953;SDS011;26686;50.130;8.710;2023-08-06T20:17:42;0.77;;;0.20;;
40953;SDS011;26686;50.130;8.710;2023-08-06T20:22:44;0.60;;;0.22;;
40953;SDS011;26686;50.130;8.710;2023-08-06T20:27:45;0.40;;;0.10;;
40953;SDS011;26686;50.130;8.710;2023-08-06T20:32:47;0.38;;;0.20;;
40953;SDS011;26686;50.130;8.710;2023-08-06T20:37:49;1.52;;;0.30;;
40953;SDS011;26686;50.130;8.710;2023-08-06T20:42:50;0.52;;;0.20;;
40953;SDS011;26686;50.130;8.710;2023-08-06T20:47:52;2.28;;;0.20;;
40953;SDS011;26686;50.130;8.710;2023-08-06T20:52:53;2.75;;;0.30;;
40953;SDS011;26686;50.130;8.710;2023-08-06T20:57:55;0.68;;;0.10;;
40953;SDS011;26686;50.130;8.710;2023-08-06T21:02:57;0.65;;;0.10;;
40953;SDS011;26686;50.130;8.710;2023-08-06T21:07:59;0.43;;;0.10;;
40953;SDS011;26686;50.130;8.710;2023-08-06T21:13:01;0.38;;;0.10;;
40953;SDS011;26686;50.130;8.710;2023-08-06T21:18:02;1.17;;;0.30;;
40953;SDS011;26686;50.130;8.710;2023-08-06T21:23:08;1.73;;;0.47;;
40953;SDS011;26686;50.130;8.710;2023-08-06T21:28:14;0.68;;;0.15;;
40953;SDS011;26686;50.130;8.710;2023-08-06T21:33:16;0.40;;;0.25;;
40953;SDS011;26686;50.130;8.710;2023-08-06T21:38:18;0.50;;;0.28;;
40953;SDS011;26686;50.130;8.710;2023-08-06T21:43:20;0.73;;;0.20;;
40953;SDS011;26686;50.130;8.710;2023-08-06T21:48:21;1.25;;;0.10;;
40953;SDS011;26686;50.130;8.710;2023-08-06T21:53:25;1.48;;;0.30;;
40953;SDS011;26686;50.130;8.710;2023-08-06T21:58:27;7.07;;;1.25;;
40953;SDS011;26686;50.130;8.710;2023-08-06T22:03:35;2.47;;;0.68;;
40953;SDS011;26686;50.130;8.710;2023-08-06T22:08:38;1.20;;;0.40;;
40953;SDS011;26686;50.130;8.710;2023-08-06T22:13:43;2.15;;;0.40;;
40953;SDS011;26686;50.130;8.710;2023-08-06T22:18:45;0.75;;;0.30;;
40953;SDS011;26686;50.130;8.710;2023-08-06T22:23:46;1.50;;;0.70;;
40953;SDS011;26686;50.130;8.710;2023-08-06T22:28:48;1.20;;;0.30;;
40953;SDS011;26686;50.130;8.710;2023-08-06T22:34:02;1.80;;;0.30;;
40953;SDS011;26686;50.130;8.710;2023-08-06T22:39:03;4.88;;;0.40;;
40953;SDS011;26686;50.130;8.710;2023-08-06T22:44:04;2.65;;;0.73;;
40953;SDS011;26686;50.130;8.710;2023-08-06T22:49:06;2.50;;;0.40;;
40953;SDS011;26686;50.130;8.710;2023-08-06T22:54:07;3.45;;;0.50;;
40953;SDS011;26686;50.130;8.710;2023-08-06T22:59:09;1.70;;;0.45;;
40953;SDS011;26686;50.130;8.710;2023-08-06T23:04:11;1.70;;;0.45;;
40953;SDS011;26686;50.130;8.710;2023-08-06T23:09:13;1.98;;;0.30;;
40953;SDS011;26686;50.130;8.710;2023-08-06T23:14:14;3.08;;;0.60;;
40953;SDS011;26686;50.130;8.710;2023-08-06T23:19:15;1.45;;;0.50;;
40953;SDS011;26686;50.130;8.710;2023-08-06T23:24:17;1.38;;;0.50;;
40953;SDS011;26686;50.130;8.710;2023-08-06T23:29:19;1.88;;;0.63;;
40953;SDS011;26686;50.130;8.710;2023-08-06T23:34:21;3.40;;;0.30;;
40953;SDS011;26686;50.130;8.710;2023-08-06T23:39:22;2.85;;;0.43;;
40953;SDS011;26686;50.130;8.710;2023-08-06T23:44:24;2.83;;;0.40;;
40953;SDS011;26686;50.130;8.710;2023-08-06T23:49:25;2.33;;;0.50;;
40953;SDS011;26686;50.130;8.710;2023-08-06T23:54:27;1.33;;;0.40;;
40953;SDS011;26686;50.130;8.710;2023-08-06T23:59:29;2.58;;;0.50;;
